Time;durP1;ratioP1;P1;durP2;ratioP2;P2;SDS_P1;SDS_P2;PMS_P1;PMS_P2;Temp;Humidity;BMP_temperature;BMP_pressure;BME280_temperature;BME280_humidity;BME280_pressure;Samples;Min_cycle;Max_cycle;Signal;HPM_P1;HPM_P2
2021/10/26 00:01:58;;;;;;;42.35;22.20;;;;;;;-1.69;100.00;102828.97;1740701;82;21011;-78
2021/10/26 00:04:26;;;;;;;50.67;24.05;;;;;;;-1.67;100.00;102821.31;1740741;81;21143;-78
2021/10/26 00:06:52;;;;;;;45.20;24.77;;;;;;;-1.64;100.00;102820.08;1741840;82;21141;-78
2021/10/26 00:09:20;;;;;;;67.08;30.02;;;;;;;-1.61;100.00;102828.64;1741656;79;21089;-78
2021/10/26 00:14:43;;;;;;;55.00;26.33;;;;;;;-1.71;100.00;102820.86;1810906;78;22703;-79
2021/10/26 00:17:12;;;;;;;46.75;23.77;;;;;;;-1.83;100.00;102828.80;1773501;80;20962;-78
2021/10/26 00:19:39;;;;;;;50.48;24.07;;;;;;;-1.84;100.00;102821.12;1773365;80;21138;-79
2021/10/26 00:22:07;;;;;;;55.33;24.25;;;;;;;-1.82;100.00;102813.91;1773316;80;21017;-79
2021/10/26 00:24:34;;;;;;;44.85;22.55;;;;;;;-1.79;100.00;102822.03;1773365;80;21064;-79
2021/10/26 00:27:01;;;;;;;45.28;24.30;;;;;;;-1.78;100.00;102819.92;1785653;80;21512;-79
2021/10/26 00:29:28;;;;;;;45.55;21.97;;;;;;;-1.74;100.00;102815.30;1717121;83;21112;-78
2021/10/26 00:31:55;;;;;;;47.30;24.00;;;;;;;-1.70;100.00;102815.75;1715355;82;21070;-79
2021/10/26 00:34:23;;;;;;;48.15;24.70;;;;;;;-1.71;100.00;102815.31;1717071;83;21437;-79
2021/10/26 00:36:50;;;;;;;53.28;23.87;;;;;;;-1.77;100.00;102816.53;1746870;82;20995;-79
2021/10/26 00:39:17;;;;;;;52.48;23.85;;;;;;;-1.84;100.00;102813.47;1716984;83;21429;-79
2021/10/26 00:41:45;;;;;;;50.03;25.10;;;;;;;-1.91;100.00;102815.08;1747076;82;21812;-79
2021/10/26 00:44:13;;;;;;;53.15;25.77;;;;;;;-1.98;100.00;102821.83;1717137;83;21167;-80
2021/10/26 00:46:40;;;;;;;53.13;25.92;;;;;;;-2.07;100.00;102817.88;1715519;82;20990;-80
2021/10/26 00:49:11;;;;;;;60.48;27.07;;;;;;;-2.16;100.00;102817.31;1680324;83;20983;-79
2021/10/26 00:51:41;;;;;;;48.65;25.35;;;;;;;-2.22;100.00;102813.00;1746942;82;21015;-79
2021/10/26 00:54:09;;;;;;;54.13;25.57;;;;;;;-2.25;100.00;102812.95;1716825;83;21144;-79
2021/10/26 00:56:38;;;;;;;51.53;26.20;;;;;;;-2.25;100.00;102807.00;1741370;82;22097;-80
2021/10/26 00:59:05;;;;;;;48.05;26.55;;;;;;;-2.25;100.00;102809.13;1717147;83;21042;-80
2021/10/26 01:01:35;;;;;;;51.90;28.45;;;;;;;-2.26;100.00;102815.49;1741427;82;21050;-79
2021/10/26 01:04:03;;;;;;;57.43;29.72;;;;;;;-2.23;100.00;102808.73;1717140;83;21480;-79
2021/10/26 01:06:30;;;;;;;56.50;27.90;;;;;;;-2.20;100.00;102810.47;1715966;82;21022;-79
2021/10/26 01:08:57;;;;;;;61.35;29.72;;;;;;;-2.19;100.00;102810.03;1717169;83;21831;-79
2021/10/26 01:11:25;;;;;;;63.23;30.68;;;;;;;-2.22;100.00;102815.56;1746817;82;21947;-80
2021/10/26 01:13:55;;;;;;;63.65;30.43;;;;;;;-2.23;100.00;102812.56;1719067;83;21088;-79
2021/10/26 01:16:23;;;;;;;67.95;32.80;;;;;;;-2.25;100.00;102810.40;1699483;84;21061;-79
2021/10/26 01:18:50;;;;;;;61.73;30.70;;;;;;;-2.27;100.00;102812.50;1714532;83;21078;-79
2021/10/26 01:21:19;;;;;;;74.72;36.30;;;;;;;-2.30;100.00;102819.70;1715070;83;21192;-79
2021/10/26 01:23:46;;;;;;;83.97;36.42;;;;;;;-2.34;100.00;102817.08;1684173;85;21089;-78
2021/10/26 01:26:13;;;;;;;87.02;39.00;;;;;;;-2.40;100.00;102812.30;1679628;83;21113;-79
2021/10/26 01:28:40;;;;;;;78.45;35.40;;;;;;;-2.46;100.00;102808.83;1683945;85;21044;-78
2021/10/26 01:31:08;;;;;;;74.65;35.73;;;;;;;-2.51;100.00;102817.69;1714112;83;21588;-78
2021/10/26 01:33:53;;;;;;;78.47;34.70;;;;;;;-2.55;100.00;102818.06;1683438;85;21172;-79
2021/10/26 01:36:34;;;;;;;82.57;35.28;;;;;;;-2.55;100.00;102818.06;1654795;85;21158;-79
2021/10/26 01:39:05;;;;;;;77.80;37.30;;;;;;;-2.57;100.00;102823.55;1654628;85;21047;-79
2021/10/26 01:41:35;;;;;;;77.82;33.90;;;;;;;-2.61;100.00;102826.91;1714592;83;21680;-79
2021/10/26 01:44:03;;;;;;;70.12;32.53;;;;;;;-2.63;100.00;102823.86;1684579;85;21075;-78
2021/10/26 01:46:31;;;;;;;66.28;31.12;;;;;;;-2.67;100.00;102818.29;1714675;83;21146;-79
2021/10/26 01:48:59;;;;;;;59.18;29.80;;;;;;;-2.71;100.00;102815.67;1684380;85;21540;-79
2021/10/26 01:51:26;;;;;;;58.58;28.67;;;;;;;-2.72;100.00;102820.77;1714636;83;21040;-78
2021/10/26 01:53:53;;;;;;;64.27;29.15;;;;;;;-2.73;100.00;102816.09;1650258;85;21134;-79
2021/10/26 01:56:21;;;;;;;67.65;29.42;;;;;;;-2.68;100.00;102818.69;1714681;83;21650;-79
2021/10/26 01:58:53;;;;;;;55.38;27.87;;;;;;;-2.63;100.00;102822.19;1679786;85;21787;-79
2021/10/26 02:01:22;;;;;;;57.55;28.17;;;;;;;-2.61;100.00;102823.08;1714700;82;21579;-80
2021/10/26 02:03:49;;;;;;;63.92;29.25;;;;;;;-2.58;100.00;102816.73;1649100;85;21667;-80
2021/10/26 02:06:17;;;;;;;53.83;28.87;;;;;;;-2.56;100.00;102816.74;1714499;83;21131;-80
2021/10/26 02:08:44;;;;;;;56.63;27.93;;;;;;;-2.56;100.00;102816.34;1684318;85;21091;-80
2021/10/26 02:11:12;;;;;;;58.33;28.10;;;;;;;-2.57;100.00;102811.23;1679494;83;21150;-79
2021/10/26 02:13:40;;;;;;;55.08;25.97;;;;;;;-2.53;100.00;102811.70;1693718;83;21047;-78
2021/10/26 02:16:07;;;;;;;53.28;27.40;;;;;;;-2.49;100.00;102812.60;1701589;84;21112;-79
2021/10/26 02:18:34;;;;;;;64.10;29.30;;;;;;;-2.43;100.00;102806.30;1701829;84;21582;-79
2021/10/26 02:21:03;;;;;;;66.28;31.23;;;;;;;-2.40;100.00;102812.73;1685603;85;21571;-80
2021/10/26 02:23:30;;;;;;;61.23;28.42;;;;;;;-2.38;100.00;102813.20;1700384;83;21834;-79
2021/10/26 02:25:57;;;;;;;65.72;33.08;;;;;;;-2.39;100.00;102814.46;1685864;85;21078;-80
2021/10/26 02:28:24;;;;;;;62.70;29.50;;;;;;;-2.42;100.00;102818.23;1714892;83;21105;-79
2021/10/26 02:30:52;;;;;;;65.12;29.23;;;;;;;-2.46;100.00;102817.77;1729194;83;21046;-79
2021/10/26 02:33:19;;;;;;;65.45;30.40;;;;;;;-2.50;100.00;102823.64;1686151;85;21603;-79
2021/10/26 02:35:48;;;;;;;62.85;31.33;;;;;;;-2.53;100.00;102820.63;1714614;83;21102;-79
2021/10/26 02:38:17;;;;;;;63.95;30.82;;;;;;;-2.59;100.00;102816.28;1729669;83;21003;-79
2021/10/26 02:40:44;;;;;;;67.78;34.53;;;;;;;-2.63;100.00;102818.36;1685942;85;21105;-78
2021/10/26 02:43:11;;;;;;;63.33;30.57;;;;;;;-2.68;100.00;102821.24;1714588;83;21524;-79
2021/10/26 02:45:39;;;;;;;59.80;30.62;;;;;;;-2.73;100.00;102826.30;1729225;83;21057;-78
2021/10/26 02:48:08;;;;;;;63.78;31.45;;;;;;;-2.77;100.00;102828.34;1701470;83;22001;-79
2021/10/26 02:50:35;;;;;;;67.92;32.10;;;;;;;-2.81;100.00;102828.27;1666576;83;21574;-79
2021/10/26 02:53:03;;;;;;;68.95;34.10;;;;;;;-2.84;100.00;102825.69;1701768;82;21041;-79
2021/10/26 02:55:30;;;;;;;59.98;32.15;;;;;;;-2.86;100.00;102821.81;1701756;82;21072;-79
2021/10/26 02:57:57;;;;;;;64.00;30.65;;;;;;;-2.88;100.00;102817.09;1701738;83;21069;-79
2021/10/26 03:00:25;;;;;;;75.95;35.03;;;;;;;-2.89;100.00;102823.05;1718598;81;21141;-79
2021/10/26 03:02:53;;;;;;;63.33;32.93;;;;;;;-2.86;100.00;102819.27;1725804;81;21626;-79
2021/10/26 03:05:20;;;;;;;75.32;36.00;;;;;;;-2.81;100.00;102815.52;1738945;80;21111;-79
2021/10/26 03:07:51;;;;;;;71.60;34.25;;;;;;;-2.80;100.00;102817.23;1709501;81;21073;-79
2021/10/26 03:10:19;;;;;;;69.22;33.42;;;;;;;-2.80;100.00;102812.13;1710864;81;21043;-79
2021/10/26 03:12:46;;;;;;;73.67;34.98;;;;;;;-2.83;100.00;102804.02;1767946;79;21117;-80
2021/10/26 03:15:15;;;;;;;61.65;32.53;;;;;;;-2.81;100.00;102810.41;1789691;79;21543;-80
2021/10/26 03:17:43;;;;;;;73.87;35.03;;;;;;;-2.77;100.00;102812.20;1768584;80;21046;-80
2021/10/26 03:20:21;;;;;;;82.33;37.58;;;;;;;-2.76;100.00;102798.58;1769736;81;21543;-79
2021/10/26 03:22:48;;;;;;;74.22;36.95;;;;;;;-2.78;100.00;102797.29;1680435;83;21552;-80
2021/10/26 03:25:16;;;;;;;70.47;35.00;;;;;;;-2.79;100.00;102799.83;1735579;82;21130;-80
2021/10/26 03:27:44;;;;;;;66.75;33.85;;;;;;;-2.79;100.00;102801.95;1719780;82;21050;-79
2021/10/26 03:30:14;;;;;;;68.90;33.37;;;;;;;-2.73;100.00;102805.02;1710691;83;21027;-80
2021/10/26 03:32:41;;;;;;;88.22;37.75;;;;;;;-2.67;100.00;102800.44;1710066;83;21798;-78
2021/10/26 03:35:18;;;;;;;80.60;36.58;;;;;;;-2.41;100.00;102795.70;1724194;82;21071;-86
2021/10/26 03:37:46;;;;;;;86.63;39.48;;;;;;;-1.81;100.00;102803.30;1790546;79;21089;-80
2021/10/26 03:40:13;;;;;;;80.03;38.05;;;;;;;-1.27;100.00;102802.16;1791874;79;21496;-81
2021/10/26 03:42:42;;;;;;;74.40;37.80;;;;;;;-0.96;100.00;102795.16;1754746;79;21028;-81
2021/10/26 03:45:10;;;;;;;78.45;39.00;;;;;;;-0.84;100.00;102797.83;1743943;81;21065;-81
2021/10/26 03:47:42;;;;;;;82.97;38.35;;;;;;;-0.70;100.00;102794.51;1772455;79;21543;-81
2021/10/26 03:50:11;;;;;;;84.10;40.33;;;;;;;-0.66;100.00;102800.94;1715723;82;21156;-81
2021/10/26 03:52:41;;;;;;;81.67;38.67;;;;;;;-0.62;100.00;102794.14;1715409;82;21085;-80
2021/10/26 03:55:10;;;;;;;67.70;36.68;;;;;;;-0.42;100.00;102788.30;1746165;82;21011;-81
2021/10/26 03:57:38;;;;;;;75.90;37.98;;;;;;;-0.39;100.00;102793.02;1714568;83;21544;-81
2021/10/26 04:00:08;;;;;;;70.20;38.10;;;;;;;-0.37;100.00;102792.61;1715936;83;21149;-80
2021/10/26 04:02:48;;;;;;;69.62;37.73;;;;;;;-0.34;100.00;102791.33;1711948;83;21173;-81
2021/10/26 04:05:25;;;;;;;80.60;42.40;;;;;;;-0.35;100.00;102790.89;1751355;81;21037;-81
2021/10/26 04:07:57;;;;;;;106.22;52.85;;;;;;;-0.38;100.00;102790.89;1734648;82;21035;-78
2021/10/26 04:10:42;;;;;;;89.65;47.60;;;;;;;-0.49;100.00;102793.80;1740331;82;21144;-80
2021/10/26 04:13:02;;;;;;;101.92;46.65;;;;;;;-0.59;100.00;102792.02;1717395;82;21067;-81
2021/10/26 04:15:30;;;;;;;97.33;44.03;;;;;;;-0.68;100.00;102792.83;1786294;79;21153;-80
2021/10/26 04:17:57;;;;;;;104.83;45.58;;;;;;;-0.89;100.00;102793.52;1788072;80;21058;-80
2021/10/26 04:20:25;;;;;;;100.05;48.28;;;;;;;-1.09;100.00;102804.45;1788457;78;21116;-80
2021/10/26 04:22:52;;;;;;;114.37;52.25;;;;;;;-1.30;100.00;102804.68;1788214;80;21077;-81
2021/10/26 04:25:20;;;;;;;108.35;54.85;;;;;;;-1.49;100.00;102807.91;1788524;79;21618;-80
2021/10/26 04:27:47;;;;;;;203.62;92.08;;;;;;;-1.70;100.00;102808.09;1788579;79;21138;-80
2021/10/26 04:30:14;;;;;;;269.40;120.05;;;;;;;-1.86;100.00;102810.02;1681656;83;21516;-80
2021/10/26 04:32:42;;;;;;;231.60;104.20;;;;;;;-1.99;100.00;102807.34;1710415;83;21545;-80
2021/10/26 04:35:10;;;;;;;222.80;99.42;;;;;;;-2.13;100.00;102803.76;1710162;82;21015;-80
2021/10/26 04:37:37;;;;;;;191.65;85.62;;;;;;;-2.22;100.00;102808.30;1710020;83;21547;-80
2021/10/26 04:40:05;;;;;;;188.85;80.07;;;;;;;-2.30;100.00;102806.06;1695724;82;21075;-80
2021/10/26 04:42:34;;;;;;;142.80;65.60;;;;;;;-2.35;100.00;102805.99;1713266;82;21066;-80
2021/10/26 04:45:05;;;;;;;150.57;64.27;;;;;;;-2.40;100.00;102809.75;1677838;83;21061;-79
2021/10/26 04:47:32;;;;;;;134.95;60.45;;;;;;;-2.46;100.00;102802.45;1685304;82;21096;-79
2021/10/26 04:50:01;;;;;;;129.93;59.88;;;;;;;-2.58;100.00;102809.08;1702035;83;21058;-80
2021/10/26 04:52:31;;;;;;;112.62;54.83;;;;;;;-2.70;100.00;102811.02;1684224;84;21911;-80
2021/10/26 04:55:00;;;;;;;112.25;54.35;;;;;;;-2.78;100.00;102813.02;1703525;84;21078;-80
2021/10/26 04:57:27;;;;;;;121.65;55.67;;;;;;;-2.82;100.00;102803.59;1703801;83;21177;-80
2021/10/26 05:00:05;;;;;;;122.58;57.45;;;;;;;-2.82;100.00;102804.47;1714610;82;21046;-80
2021/10/26 05:02:34;;;;;;;119.55;60.23;;;;;;;-2.81;100.00;102798.94;1764335;80;21074;-79
2021/10/26 05:05:02;;;;;;;112.65;55.03;;;;;;;-2.82;100.00;102800.64;1764574;81;21148;-79
2021/10/26 05:07:29;;;;;;;133.72;62.05;;;;;;;-2.84;100.00;102806.13;1764677;81;21061;-79
2021/10/26 05:09:57;;;;;;;123.90;55.98;;;;;;;-2.86;100.00;102798.46;1764683;80;21081;-80
2021/10/26 05:12:24;;;;;;;132.90;60.95;;;;;;;-2.87;100.00;102803.52;1765236;81;21011;-79
2021/10/26 05:14:52;;;;;;;123.22;58.28;;;;;;;-2.90;100.00;102814.53;1766538;79;21473;-80
2021/10/26 05:17:39;;;;;;;116.35;55.33;;;;;;;-2.90;100.00;102813.69;1774613;79;21971;-80
2021/10/26 05:20:27;;;;;;;103.72;52.08;;;;;;;-2.87;100.00;102803.52;1766709;78;21065;-80
2021/10/26 05:23:10;;;;;;;97.30;47.53;;;;;;;-2.81;100.00;102814.23;1767299;79;21010;-79
2021/10/26 05:25:54;;;;;;;99.37;49.15;;;;;;;-2.75;100.00;102802.85;1671685;84;21097;-80
2021/10/26 05:28:23;;;;;;;101.65;49.60;;;;;;;-2.67;100.00;102811.91;1689890;82;21086;-80
2021/10/26 05:30:51;;;;;;;117.33;54.03;;;;;;;-2.60;100.00;102810.73;1724186;82;21158;-80
2021/10/26 05:33:18;;;;;;;108.72;51.92;;;;;;;-2.52;100.00;102814.69;1722790;82;21069;-80
2021/10/26 05:35:45;;;;;;;124.10;55.00;;;;;;;-2.45;100.00;102809.27;1724768;82;21027;-80
2021/10/26 05:38:12;;;;;;;102.50;49.13;;;;;;;-2.39;100.00;102810.63;1724040;82;21023;-80
2021/10/26 05:40:39;;;;;;;98.10;49.27;;;;;;;-2.31;100.00;102806.89;1722135;82;21688;-80
2021/10/26 05:43:09;;;;;;;98.97;48.63;;;;;;;-2.23;100.00;102810.01;1699629;83;21053;-81
2021/10/26 05:45:44;;;;;;;98.30;49.18;;;;;;;-2.12;100.00;102812.70;1704079;82;21584;-80
2021/10/26 05:48:08;;;;;;;89.37;47.27;;;;;;;-2.00;100.00;102820.94;1685147;82;21098;-80
2021/10/26 05:50:35;;;;;;;96.75;48.28;;;;;;;-1.87;100.00;102818.52;1714845;83;21085;-80
2021/10/26 05:53:02;;;;;;;100.25;50.15;;;;;;;-1.75;100.00;102821.24;1708027;82;21082;-80
2021/10/26 05:55:29;;;;;;;100.33;48.98;;;;;;;-1.66;100.00;102820.48;1717300;82;21839;-80
2021/10/26 05:57:58;;;;;;;87.78;47.15;;;;;;;-1.58;100.00;102829.09;1709175;82;21686;-80
2021/10/26 06:00:34;;;;;;;99.28;48.60;;;;;;;-1.48;100.00;102827.48;1691951;82;21095;-80
2021/10/26 06:03:04;;;;;;;91.35;48.50;;;;;;;-1.40;100.00;102821.19;1708609;81;21082;-80
2021/10/26 06:05:35;;;;;;;97.47;51.00;;;;;;;-1.31;100.00;102822.56;1727731;82;20952;-80
2021/10/26 06:08:07;;;;;;;99.40;50.12;;;;;;;-1.22;100.00;102820.51;1714269;82;21121;-80
2021/10/26 06:10:42;;;;;;;99.20;53.68;;;;;;;-1.14;100.00;102825.28;1709753;82;21563;-81
2021/10/26 06:13:12;;;;;;;84.03;46.28;;;;;;;-1.05;100.00;102825.80;1708134;82;21087;-81
2021/10/26 06:15:39;;;;;;;87.60;46.68;;;;;;;-0.98;100.00;102822.02;1717616;82;21082;-81
2021/10/26 06:18:07;;;;;;;83.52;44.73;;;;;;;-0.87;100.00;102830.21;1700789;82;21058;-81
2021/10/26 06:20:36;;;;;;;81.53;43.98;;;;;;;-0.77;100.00;102822.17;1701172;83;21876;-81
2021/10/26 06:23:03;;;;;;;76.87;42.62;;;;;;;-0.67;100.00;102820.13;1706961;82;21117;-80
2021/10/26 06:25:32;;;;;;;78.65;43.50;;;;;;;-0.58;100.00;102821.48;1700416;84;21015;-81
2021/10/26 06:28:04;;;;;;;80.85;42.50;;;;;;;-0.46;100.00;102816.87;1680415;82;21105;-81
2021/10/26 06:30:32;;;;;;;77.55;43.80;;;;;;;-0.34;100.00;102811.81;1710524;83;21114;-81
2021/10/26 06:33:10;;;;;;;65.70;38.60;;;;;;;-0.22;100.00;102816.58;1715176;83;21156;-80
2021/10/26 06:35:39;;;;;;;72.17;38.20;;;;;;;-0.11;100.00;102812.34;1665700;84;21082;-81
2021/10/26 06:38:09;;;;;;;68.42;36.05;;;;;;;0.04;100.00;102818.42;1726720;82;21065;-81
2021/10/26 06:40:41;;;;;;;54.08;33.08;;;;;;;0.17;100.00;102818.02;1714853;82;21031;-81
2021/10/26 06:43:14;;;;;;;60.15;33.35;;;;;;;0.31;100.00;102820.23;1713472;82;21464;-81
2021/10/26 06:45:59;;;;;;;62.17;33.38;;;;;;;0.46;100.00;102823.23;1723387;83;21467;-80
2021/10/26 06:48:50;;;;;;;58.70;32.70;;;;;;;0.63;100.00;102820.30;1724737;82;21493;-80
2021/10/26 06:51:36;;;;;;;56.28;33.10;;;;;;;0.79;100.00;102815.19;1726310;82;21560;-80
2021/10/26 06:54:05;;;;;;;58.38;33.38;;;;;;;0.95;100.00;102816.07;1672481;84;21607;-80
2021/10/26 06:56:51;;;;;;;56.95;31.60;;;;;;;1.11;100.00;102813.06;1686184;84;21050;-79
2021/10/26 06:59:39;;;;;;;59.58;31.85;;;;;;;1.28;100.00;102812.20;1727748;82;21173;-79
2021/10/26 07:02:11;;;;;;;62.95;33.00;;;;;;;1.44;100.00;102808.77;1710729;82;21008;-79
2021/10/26 07:04:49;;;;;;;48.50;26.95;;;;;;;1.58;100.00;102808.74;1701325;82;21078;-79
2021/10/26 07:07:24;;;;;;;42.25;25.27;;;;;;;1.73;100.00;102806.55;1724551;82;21050;-80
2021/10/26 07:09:55;;;;;;;41.35;23.80;;;;;;;1.86;100.00;102806.95;1682571;83;21127;-79
2021/10/26 07:12:27;;;;;;;46.35;25.10;;;;;;;2.01;100.00;102809.03;1674703;84;21654;-79
2021/10/26 07:14:56;;;;;;;39.23;23.73;;;;;;;2.15;100.00;102807.70;1687573;83;21046;-79
2021/10/26 07:17:23;;;;;;;39.75;23.92;;;;;;;2.30;100.00;102804.18;1722911;83;21066;-79
2021/10/26 07:19:52;;;;;;;40.58;22.27;;;;;;;2.42;100.00;102813.55;1727782;82;21043;-79
2021/10/26 07:22:29;;;;;;;36.65;22.02;;;;;;;2.53;100.00;102810.48;1720863;82;21512;-79
2021/10/26 07:25:06;;;;;;;41.45;22.37;;;;;;;2.66;100.00;102809.98;1729732;82;21156;-78
2021/10/26 07:27:39;;;;;;;39.42;22.75;;;;;;;2.79;100.00;102812.04;1737221;82;21086;-80
2021/10/26 07:30:11;;;;;;;34.08;21.57;;;;;;;2.91;100.00;102805.95;1727723;82;21019;-80
2021/10/26 07:32:41;;;;;;;36.30;21.80;;;;;;;3.16;100.00;102791.98;1715514;82;21078;-79
2021/10/26 07:35:09;;;;;;;36.38;22.67;;;;;;;3.16;100.00;102791.98;1679309;83;21572;-79
2021/10/26 07:37:41;;;;;;;33.20;20.30;;;;;;;3.31;100.00;102795.30;1700500;83;21176;-79
2021/10/26 07:40:09;;;;;;;33.10;19.57;;;;;;;3.46;100.00;102798.14;1690767;83;21035;-79
2021/10/26 07:42:41;;;;;;;30.08;16.55;;;;;;;3.59;100.00;102787.27;1698050;82;21032;-79
2021/10/26 07:45:28;;;;;;;31.10;15.38;;;;;;;3.72;100.00;102788.00;1702113;82;21026;-80
2021/10/26 07:48:05;;;;;;;29.20;16.35;;;;;;;3.88;100.00;102795.97;1706626;82;21119;-79
2021/10/26 07:50:32;;;;;;;23.62;15.30;;;;;;;4.03;100.00;102790.20;1716260;82;21865;-79
2021/10/26 07:52:59;;;;;;;26.82;14.65;;;;;;;4.17;100.00;102781.00;1716559;82;21028;-80
2021/10/26 07:55:37;;;;;;;26.85;16.35;;;;;;;4.28;100.00;102783.43;1717241;81;21159;-80
2021/10/26 07:58:12;;;;;;;24.98;15.05;;;;;;;4.40;100.00;102785.41;1721507;83;21085;-80
2021/10/26 08:00:42;;;;;;;23.42;14.18;;;;;;;4.56;100.00;102781.30;1721870;83;21058;-79
2021/10/26 08:03:11;;;;;;;23.62;14.45;;;;;;;4.69;100.00;102780.68;1684490;84;21098;-80
2021/10/26 08:05:44;;;;;;;40.45;15.18;;;;;;;4.81;100.00;102780.47;1675653;84;21070;-81
2021/10/26 08:08:12;;;;;;;51.80;14.05;;;;;;;4.99;100.00;102773.30;1700039;84;21548;-79
2021/10/26 08:10:42;;;;;;;21.23;12.20;;;;;;;5.23;100.00;102777.20;1702753;83;21488;-78
2021/10/26 08:13:09;;;;;;;19.98;10.88;;;;;;;5.42;100.00;102766.09;1710245;83;21065;-78
2021/10/26 08:15:36;;;;;;;15.72;9.63;;;;;;;5.63;100.00;102768.70;1709286;82;21202;-78
2021/10/26 08:18:03;;;;;;;21.62;10.50;;;;;;;5.79;100.00;102770.97;1710150;83;21901;-77
2021/10/26 08:20:32;;;;;;;28.75;10.53;;;;;;;5.92;100.00;102763.36;1716533;82;21527;-77
2021/10/26 08:22:59;;;;;;;19.10;10.28;;;;;;;6.06;100.00;102766.11;1722194;82;21059;-78
2021/10/26 08:25:32;;;;;;;19.37;10.90;;;;;;;6.22;100.00;102766.19;1713403;82;21610;-77
2021/10/26 08:27:59;;;;;;;32.50;11.40;;;;;;;6.36;100.00;102762.46;1704638;82;21124;-80
2021/10/26 08:30:39;;;;;;;22.67;11.63;;;;;;;6.50;100.00;102764.28;1713754;83;21035;-80
2021/10/26 08:33:16;;;;;;;27.48;13.93;;;;;;;6.61;92.83;102762.72;1728629;82;21051;-81
2021/10/26 08:35:31;;;;;;;37.65;18.32;;;;;;;6.70;94.99;102762.93;1687716;83;21144;-80
2021/10/26 08:38:03;;;;;;;32.93;15.43;;;;;;;6.75;75.33;102763.23;1713093;82;21145;-82
2021/10/26 08:40:37;;;;;;;25.37;14.20;;;;;;;6.79;71.95;102755.81;1708156;82;21158;-81
2021/10/26 08:43:08;;;;;;;25.37;13.80;;;;;;;6.84;67.56;102754.83;1727279;82;21099;-83
2021/10/26 08:45:38;;;;;;;22.05;11.55;;;;;;;6.90;69.76;102754.66;1736453;81;21086;-84
2021/10/26 08:48:07;;;;;;;15.13;9.23;;;;;;;6.98;67.04;102748.01;1713410;82;21121;-83
2021/10/26 08:51:00;;;;;;;23.57;11.63;;;;;;;7.09;63.64;102746.00;1675331;84;21051;-82
2021/10/26 08:53:30;;;;;;;17.92;9.00;;;;;;;7.19;62.10;102746.14;1723231;82;21854;-84
2021/10/26 08:55:59;;;;;;;13.40;6.25;;;;;;;7.29;60.68;102748.03;1716464;83;21615;-84
2021/10/26 08:58:34;;;;;;;14.98;7.42;;;;;;;7.41;57.11;102740.39;1761995;80;21524;-84
2021/10/26 09:01:04;;;;;;;21.23;11.00;;;;;;;7.55;55.69;102732.20;1734946;82;21066;-83
2021/10/26 09:03:36;;;;;;;10.93;7.37;;;;;;;7.70;56.45;102737.41;1707777;82;21153;-83
2021/10/26 09:06:05;;;;;;;7.53;5.03;;;;;;;7.83;54.74;102740.50;1691864;83;21177;-84
2021/10/26 09:08:34;;;;;;;10.58;6.08;;;;;;;7.94;53.37;102739.70;1703799;82;21099;-84
2021/10/26 09:17:16;;;;;;;14.68;8.55;;;;;;;8.15;50.27;102723.94;1694742;82;21168;-84
2021/10/26 09:19:48;;;;;;;18.00;10.05;;;;;;;8.19;50.78;102730.75;1668824;82;21120;-84
2021/10/26 09:22:17;;;;;;;21.05;10.88;;;;;;;8.25;51.25;102726.25;1728056;82;21009;-84
2021/10/26 09:24:59;;;;;;;19.70;11.50;;;;;;;8.31;51.38;102723.45;1707693;82;21518;-84
2021/10/26 09:27:28;;;;;;;23.30;12.88;;;;;;;8.35;49.46;102718.58;1713131;80;21057;-84
2021/10/26 09:30:00;;;;;;;16.00;10.28;;;;;;;8.32;49.75;102718.66;1700325;83;21001;-83
2021/10/26 09:32:38;;;;;;;20.57;11.20;;;;;;;8.30;48.16;102717.85;1703532;82;21177;-84
2021/10/26 09:35:10;;;;;;;17.98;10.58;;;;;;;8.31;49.40;102715.66;1717790;82;21081;-84
2021/10/26 09:37:46;;;;;;;19.50;10.78;;;;;;;8.29;49.86;102708.40;1705703;82;21728;-84
2021/10/26 09:40:15;;;;;;;13.98;5.85;;;;;;;8.32;49.50;102705.69;1692965;82;21775;-83
2021/10/26 09:42:53;;;;;;;11.35;7.53;;;;;;;8.37;48.88;102699.45;1722485;83;21519;-83
2021/10/26 09:45:31;;;;;;;15.43;9.43;;;;;;;8.47;47.31;102693.53;1721827;82;21163;-84
2021/10/26 09:48:13;;;;;;;15.70;9.15;;;;;;;8.55;48.38;102696.32;1718569;83;21065;-82
2021/10/26 09:50:42;;;;;;;15.50;8.60;;;;;;;8.59;46.42;102695.33;1703268;82;26598;-84
2021/10/26 09:53:17;;;;;;;14.30;8.10;;;;;;;8.57;46.93;102685.44;1682895;83;21086;-84
2021/10/26 09:55:50;;;;;;;12.00;6.83;;;;;;;8.58;47.55;102686.68;1706804;82;20999;-83
2021/10/26 09:58:20;;;;;;;9.28;6.40;;;;;;;8.67;47.69;102681.64;1728871;81;21157;-83
2021/10/26 10:00:51;;;;;;;8.65;6.15;;;;;;;8.80;47.03;102684.20;1719711;82;21017;-84
2021/10/26 10:03:26;;;;;;;10.75;6.28;;;;;;;8.92;46.14;102678.20;1710853;83;22245;-84
2021/10/26 10:05:59;;;;;;;5.87;4.50;;;;;;;9.00;46.14;102677.02;1722902;82;21026;-84
2021/10/26 10:08:34;;;;;;;5.92;4.65;;;;;;;9.08;45.09;102675.45;1719974;82;21574;-84
2021/10/26 10:11:19;;;;;;;8.30;4.65;;;;;;;9.10;44.65;102668.89;1711830;82;21665;-83
2021/10/26 10:13:55;;;;;;;6.83;5.00;;;;;;;9.08;44.50;102666.36;1709351;83;21129;-84
2021/10/26 10:16:26;;;;;;;5.12;4.50;;;;;;;9.10;44.31;102668.42;1724591;82;21152;-84
2021/10/26 10:18:54;;;;;;;7.85;5.42;;;;;;;9.15;44.78;102665.66;1697697;82;28619;-84
2021/10/26 10:21:28;;;;;;;12.25;5.30;;;;;;;9.20;45.01;102665.50;1723409;83;21087;-84
2021/10/26 10:23:58;;;;;;;7.25;5.75;;;;;;;9.24;44.65;102655.40;1720881;83;21548;-85
2021/10/26 10:26:29;;;;;;;8.63;6.42;;;;;;;9.29;44.40;102656.90;1737350;81;21018;-83
2021/10/26 10:28:59;;;;;;;;;;;;;;;9.35;44.62;102651.92;1717642;82;21043;-85
2021/10/26 10:31:27;;;;;;;9.23;5.03;;;;;;;9.40;44.16;102641.36;1706769;82;20152;-85
2021/10/26 10:34:00;;;;;;;8.05;5.50;;;;;;;9.44;43.65;102646.38;1706939;82;21058;-85
2021/10/26 10:36:28;;;;;;;8.55;5.50;;;;;;;9.46;43.23;102639.38;1707330;83;21812;-85
2021/10/26 10:38:59;;;;;;;7.90;5.58;;;;;;;9.47;43.46;102638.91;1715001;81;21054;-83
2021/10/26 10:41:34;;;;;;;8.03;5.50;;;;;;;9.47;43.44;102628.08;1694701;84;21524;-81
2021/10/26 10:44:23;;;;;;;8.60;6.25;;;;;;;9.49;43.30;102625.41;1677863;84;21067;-87
2021/10/26 10:47:05;;;;;;;6.35;5.03;;;;;;;9.50;43.22;102622.34;1713841;82;21821;-87
2021/10/26 10:49:38;;;;;;;7.53;5.20;;;;;;;9.52;43.20;102618.80;1705819;83;21544;-84
2021/10/26 10:52:10;;;;;;;7.92;5.00;;;;;;;9.51;42.48;102620.14;1700159;83;21537;-85
2021/10/26 10:57:34;;;;;;;6.20;5.25;;;;;;;9.41;42.46;102615.31;1666767;83;21607;-85
2021/10/26 11:00:21;;;;;;;7.08;5.22;;;;;;;9.37;42.52;102611.12;1678285;84;21333;-84
2021/10/26 11:02:57;;;;;;;7.95;6.80;;;;;;;9.30;42.47;102609.20;1717483;82;21168;-84
2021/10/26 11:05:40;;;;;;;12.00;6.92;;;;;;;9.27;43.00;102611.06;1737608;81;21082;-86
2021/10/26 11:08:16;;;;;;;6.78;5.80;;;;;;;9.26;42.80;102601.57;1714274;82;21045;-85
2021/10/26 11:10:57;;;;;;;10.90;7.03;;;;;;;9.25;42.70;102600.73;1701414;82;21714;-84
2021/10/26 11:13:27;;;;;;;11.25;7.00;;;;;;;9.24;42.84;102597.73;1704825;83;21038;-83
2021/10/26 11:15:58;;;;;;;8.88;7.33;;;;;;;9.25;43.02;102592.11;1685763;83;21100;-83
2021/10/26 11:18:49;;;;;;;9.88;6.37;;;;;;;9.24;42.85;102587.80;1707087;82;21084;-83
2021/10/26 11:21:28;;;;;;;12.07;7.55;;;;;;;9.20;42.28;102591.41;1700033;83;21033;-82
2021/10/26 11:24:04;;;;;;;16.27;9.70;;;;;;;9.16;43.01;102581.59;1678465;84;21020;-82
2021/10/26 11:26:42;;;;;;;20.27;10.70;;;;;;;9.15;43.07;102580.75;1708589;82;21033;-80
2021/10/26 11:29:15;;;;;;;69.65;14.13;;;;;;;9.17;43.09;102572.05;1699000;82;21901;-80
2021/10/26 11:31:51;;;;;;;;;;;;;;;9.18;43.14;102572.42;1708898;82;21544;-81
2021/10/26 11:34:26;;;;;;;14.25;10.10;;;;;;;9.18;43.04;102575.02;1712220;82;20469;-82
2021/10/26 11:37:09;;;;;;;14.90;9.48;;;;;;;9.16;42.62;102572.48;1718814;83;21557;-81
2021/10/26 11:39:39;;;;;;;14.30;9.95;;;;;;;9.14;42.85;102566.49;1718485;82;21533;-81